Time;durP1;ratioP1;P1;durP2;ratioP2;P2;SDS_P1;SDS_P2;PMS_P1;PMS_P2;Temp;Humidity;BMP_temperature;BMP_pressure;BME280_temperature;BME280_humidity;BME280_pressure;Samples;Min_cycle;Max_cycle;Signal;HPM_P1;HPM_P2
2023/10/10 00:01:48;;;;;;;;;;;;;;;15.75;100.00;102018.44;5049618;28;1926;-74
2023/10/10 00:04:19;;;;;;;;;;;;;;;15.75;100.00;102015.81;5051774;28;1554;-75
2023/10/10 00:06:44;;;;;;;;;;;;;;;15.75;100.00;102021.06;5030400;28;1284;-74
2023/10/10 00:09:13;;;;;;;;;;;;;;;15.73;100.00;102017.75;5043397;28;1246;-74
2023/10/10 00:11:45;;;;;;;;;;;;;;;15.70;100.00;102028.47;5048860;28;1254;-76
2023/10/10 00:14:17;;;;;;;;;;;;;;;15.70;100.00;102022.41;5043350;28;1453;-75
2023/10/10 00:16:42;;;;;;;;;;;;;;;15.65;100.00;102020.16;5042260;28;1213;-74
2023/10/10 00:19:19;;;;;;;;;;;;;;;15.62;100.00;102016.03;5045132;28;1285;-74
2023/10/10 00:40:09;;;;;;;;;;;;;;;15.54;100.00;102017.59;5042623;28;953;-74
2023/10/10 00:42:41;;;;;;;;;;;;;;;15.51;100.00;102023.91;5029205;28;1910;-74
2023/10/10 00:45:09;;;;;;;;;;;;;;;15.50;100.00;102018.81;5048045;28;1300;-75
2023/10/10 00:47:40;;;;;;;;;;;;;;;15.49;100.00;102014.56;5044856;28;1292;-76
2023/10/10 00:50:08;;;;;;;;;;;;;;;15.50;100.00;102013.59;5043996;28;1207;-74
2023/10/10 00:52:36;;;;;;;;;;;;;;;15.47;100.00;102013.84;5052412;28;1170;-74
2023/10/10 00:55:04;;;;;;;;;;;;;;;15.43;100.00;102013.28;5048307;28;1142;-75
2023/10/10 00:57:35;;;;;;;;;;;;;;;15.43;100.00;102000.22;5053734;28;1240;-75
2023/10/10 01:00:01;;;;;;;;;;;;;;;15.44;100.00;102003.66;5049250;28;1033;-74
2023/10/10 01:18:15;;;;;;;;;;;;;;;15.35;100.00;101977.31;5048863;28;1340;-75
2023/10/10 01:20:49;;;;;;;;;;;;;;;15.34;100.00;101975.66;5047939;28;1898;-75
2023/10/10 01:23:15;;;;;;;;;;;;;;;15.32;100.00;101974.97;5026502;28;1503;-74
2023/10/10 01:25:45;;;;;;;;;;;;;;;15.30;100.00;101969.00;5047164;28;1298;-75
2023/10/10 01:51:35;;;;;;;;;;;;;;;14.98;100.00;101952.56;5043216;28;1096;-75
2023/10/10 01:54:18;;;;;;;;;;;;;;;14.92;100.00;101951.28;5054466;28;1281;-74
2023/10/10 01:56:44;;;;;;;;;;;;;;;14.83;100.00;101929.34;5047684;28;1162;-77
2023/10/10 01:59:13;;;;;;;;;;;;;;;14.81;100.00;101941.72;5034958;28;1339;-75
2023/10/10 02:01:38;;;;;;;;;;;;;;;14.76;100.00;101938.66;5045785;28;1893;-77
2023/10/10 02:04:05;;;;;;;;;;;;;;;14.75;100.00;101930.94;5033210;28;1352;-75
2023/10/10 02:06:34;;;;;;;;;;;;;;;14.69;100.00;101932.28;5049176;28;1565;-74
2023/10/10 02:09:11;;;;;;;;;;;;;;;14.69;100.00;101931.44;5048678;28;1202;-75
2023/10/10 02:11:38;;;;;;;;;;;;;;;14.65;100.00;101930.88;5049874;28;1369;-75
2023/10/10 02:14:11;;;;;;;;;;;;;;;14.59;100.00;101936.59;5053542;28;1174;-75
2023/10/10 02:16:40;;;;;;;;;;;;;;;14.55;100.00;101935.16;5033782;28;1208;-75
2023/10/10 02:19:15;;;;;;;;;;;;;;;14.52;100.00;101930.22;5049092;28;1279;-74
2023/10/10 02:21:47;;;;;;;;;;;;;;;14.48;100.00;101928.78;5032520;28;1957;-74
2023/10/10 02:27:05;;;;;;;;;;;;;;;14.43;100.00;101930.91;5018165;28;1329;-75
2023/10/10 02:32:41;;;;;;;;;;;;;;;14.37;100.00;101921.78;5043327;28;1217;-74
2023/10/10 02:34:47;;;;;;;;;;;;;;;14.33;100.00;101926.41;5027425;28;1516;-74
2023/10/10 02:39:48;;;;;;;;;;;;;;;14.29;100.00;101925.00;5043569;28;1275;-74
2023/10/10 02:42:18;;;;;;;;;;;;;;;14.29;100.00;101917.19;5049130;28;1965;-74
2023/10/10 02:44:46;;;;;;;;;;;;;;;14.28;100.00;101918.16;5028724;28;1265;-75
2023/10/10 02:47:13;;;;;;;;;;;;;;;14.24;100.00;101906.28;5049524;28;1264;-74
2023/10/10 02:49:38;;;;;;;;;;;;;;;14.21;100.00;101911.72;5048075;28;1331;-74
2023/10/10 02:52:06;;;;;;;;;;;;;;;14.21;100.00;101911.72;5048508;28;1567;-74
2023/10/10 02:54:35;;;;;;;;;;;;;;;14.23;100.00;101907.25;5047857;28;1429;-74
2023/10/10 02:59:45;;;;;;;;;;;;;;;14.28;100.00;101907.72;5048169;28;1409;-73
2023/10/10 03:02:18;;;;;;;;;;;;;;;14.24;100.00;101914.13;5052609;28;1973;-74
2023/10/10 03:04:53;;;;;;;;;;;;;;;14.21;100.00;101916.94;5045041;28;1249;-73
2023/10/10 03:07:28;;;;;;;;;;;;;;;14.20;100.00;101920.50;5050394;28;1218;-75
2023/10/10 03:10:22;;;;;;;;;;;;;;;14.19;100.00;101913.66;5047234;28;992;-73
2023/10/10 03:13:05;;;;;;;;;;;;;;;14.19;100.00;101918.88;5054768;28;1443;-76
2023/10/10 03:15:32;;;;;;;;;;;;;;;14.19;100.00;101918.88;5058445;28;1069;-77
2023/10/10 03:25:51;;;;;;;;;;;;;;;14.09;100.00;101923.97;5050773;28;1233;-74
2023/10/10 03:30:52;;;;;;;;;;;;;;;14.00;100.00;101922.09;5051260;28;1193;-76
2023/10/10 03:33:35;;;;;;;;;;;;;;;13.98;100.00;101910.13;5026948;28;1520;-74
2023/10/10 03:36:13;;;;;;;;;;;;;;;13.97;100.00;101913.69;5048640;28;1232;-75
2023/10/10 05:23:30;;;;;;;;;;;;;;;14.01;100.00;101904.66;5046048;28;1187;-75
2023/10/10 05:25:09;;;;;;;;;;;;;;;13.49;100.00;101830.53;5045404;28;1203;-75
2023/10/10 05:27:41;;;;;;;;;;;;;;;13.48;100.00;101828.88;5049269;28;1264;-75
2023/10/10 05:30:06;;;;;;;;;;;;;;;13.48;100.00;101828.88;5049999;28;1257;-74
2023/10/10 05:32:32;;;;;;;;;;;;;;;13.49;100.00;101830.53;5042497;28;1225;-74
2023/10/10 05:34:58;;;;;;;;;;;;;;;13.50;100.00;101820.00;5050802;28;1336;-74
2023/10/10 05:37:24;;;;;;;;;;;;;;;13.52;100.00;101820.69;5051052;28;1209;-75
2023/10/10 05:39:56;;;;;;;;;;;;;;;13.52;100.00;101815.47;5054841;28;1238;-75
2023/10/10 05:42:25;;;;;;;;;;;;;;;13.54;100.00;101807.56;5050806;28;1961;-75
2023/10/10 05:44:50;;;;;;;;;;;;;;;13.53;100.00;101806.72;5048659;28;1306;-74
2023/10/10 05:47:17;;;;;;;;;;;;;;;13.52;100.00;101799.84;5029725;28;1405;-75
2023/10/10 05:49:42;;;;;;;;;;;;;;;13.51;100.00;101802.56;5049729;28;1227;-75
2023/10/10 05:52:07;;;;;;;;;;;;;;;13.48;100.00;101798.44;5050649;28;1566;-74
2023/10/10 05:54:33;;;;;;;;;;;;;;;13.46;100.00;101799.50;5046920;28;1177;-74
2023/10/10 05:56:58;;;;;;;;;;;;;;;13.43;100.00;101805.78;5045629;28;1099;-76
2023/10/10 05:59:23;;;;;;;;;;;;;;;13.41;100.00;101802.44;5048917;28;1229;-75
2023/10/10 06:01:48;;;;;;;;;;;;;;;13.37;100.00;101806.25;5048226;28;1902;-75
2023/10/10 06:04:14;;;;;;;;;;;;;;;13.34;100.00;101806.47;5049163;28;1147;-75
2023/10/10 06:06:39;;;;;;;;;;;;;;;13.35;100.00;101807.31;5045438;28;1225;-74
2023/10/10 06:09:05;;;;;;;;;;;;;;;13.34;100.00;101800.44;5049839;28;1245;-75
2023/10/10 06:11:34;;;;;;;;;;;;;;;13.33;100.00;101810.03;5048284;28;1257;-76
2023/10/10 06:13:59;;;;;;;;;;;;;;;13.31;100.00;101795.50;5049630;28;1273;-75
2023/10/10 06:16:25;;;;;;;;;;;;;;;13.29;100.00;101804.22;5030286;28;1660;-75
2023/10/10 06:18:50;;;;;;;;;;;;;;;13.29;100.00;101804.22;5039834;28;1526;-75
2023/10/10 06:21:16;;;;;;;;;;;;;;;13.24;100.00;101801.16;5029177;28;1953;-76
2023/10/10 06:23:42;;;;;;;;;;;;;;;13.23;100.00;101804.72;5031290;28;1265;-75
2023/10/10 06:26:07;;;;;;;;;;;;;;;13.21;100.00;101796.19;5035868;28;1132;-75
2023/10/10 06:28:36;;;;;;;;;;;;;;;13.17;100.00;101799.94;5032384;28;1328;-74
2023/10/10 06:31:02;;;;;;;;;;;;;;;13.15;100.00;101796.63;5054229;28;1024;-75
2023/10/10 06:33:27;;;;;;;;;;;;;;;13.14;100.00;101800.19;5046792;28;1080;-74
2023/10/10 06:36:25;;;;;;;;;;;;;;;13.12;100.00;101802.06;5056489;28;1233;-76
2023/10/10 06:38:59;;;;;;;;;;;;;;;13.12;100.00;101796.84;5052113;28;1197;-76
2023/10/10 06:41:30;;;;;;;;;;;;;;;13.11;100.00;101795.19;5024773;28;1894;-74
2023/10/10 06:43:57;;;;;;;;;;;;;;;13.08;100.00;101790.25;5043913;28;1257;-75
2023/10/10 06:46:23;;;;;;;;;;;;;;;13.08;100.00;101800.66;5050727;28;1249;-75
2023/10/10 06:48:50;;;;;;;;;;;;;;;13.09;100.00;101799.72;5042795;28;1424;-74
2023/10/10 06:51:21;;;;;;;;;;;;;;;13.10;100.00;101806.56;5047396;28;1068;-75
2023/10/10 06:53:47;;;;;;;;;;;;;;;13.13;100.00;101808.97;5026812;28;1323;-75
2023/10/10 06:56:15;;;;;;;;;;;;;;;13.14;100.00;101800.19;5032507;28;1531;-77
2023/10/10 06:58:49;;;;;;;;;;;;;;;13.15;100.00;101791.44;5045354;28;1211;-76
2023/10/10 07:01:19;;;;;;;;;;;;;;;13.17;100.00;101789.53;5031551;28;1959;-77
2023/10/10 07:03:49;;;;;;;;;;;;;;;13.20;100.00;101794.50;5030918;28;1456;-77
2023/10/10 07:06:14;;;;;;;;;;;;;;;13.21;100.00;101801.41;5053319;28;1197;-75
2023/10/10 07:08:40;;;;;;;;;;;;;;;13.24;100.00;101801.16;5051709;28;1373;-76
2023/10/10 07:11:05;;;;;;;;;;;;;;;13.27;100.00;101795.72;5048402;28;1078;-74
2023/10/10 07:13:31;;;;;;;;;;;;;;;13.26;100.00;101788.84;5047777;28;1243;-74
2023/10/10 07:15:56;;;;;;;;;;;;;;;13.25;100.00;101792.41;5051143;28;1163;-74
2023/10/10 07:18:25;;;;;;;;;;;;;;;13.26;100.00;101799.28;5046595;28;1257;-75
2023/10/10 07:21:18;;;;;;;;;;;;;;;13.32;100.00;101802.34;5041332;28;1961;-76
2023/10/10 07:23:42;;;;;;;;;;;;;;;13.36;100.00;101798.53;5046418;28;1502;-75
2023/10/10 07:26:18;;;;;;;;;;;;;;;13.35;100.00;101802.94;5043737;28;1535;-74
2023/10/10 07:28:49;;;;;;;;;;;;;;;13.37;100.00;101797.63;5043741;28;1324;-76
2023/10/10 07:31:18;;;;;;;;;;;;;;;13.41;100.00;101806.84;5030448;28;1327;-74
2023/10/10 07:33:44;;;;;;;;;;;;;;;13.44;100.00;101806.59;5046434;28;1313;-75
2023/10/10 07:36:13;;;;;;;;;;;;;;;13.45;100.00;101808.25;5044453;28;1534;-75
2023/10/10 07:38:38;;;;;;;;;;;;;;;13.46;100.00;101802.09;5048380;28;1205;-75
2023/10/10 07:41:04;;;;;;;;;;;;;;;13.48;100.00;101802.81;5042855;28;1943;-76
2023/10/10 07:43:34;;;;;;;;;;;;;;;13.51;100.00;101802.56;5047577;28;1202;-76
2023/10/10 07:46:12;;;;;;;;;;;;;;;13.53;100.00;101805.88;5052860;28;1136;-75
2023/10/10 07:48:39;;;;;;;;;;;;;;;13.55;100.00;101809.22;5044634;28;1236;-75
2023/10/10 07:51:07;;;;;;;;;;;;;;;13.59;100.00;101800.19;5043949;28;1629;-76
2023/10/10 07:53:40;;;;;;;;;;;;;;;13.65;100.00;101804.94;5040971;28;1092;-77
2023/10/10 07:56:06;;;;;;;;;;;;;;;13.69;100.00;101801.09;5044379;28;1332;-76
2023/10/10 07:58:43;;;;;;;;;;;;;;;13.72;100.00;101800.88;5042772;28;1300;-77
2023/10/10 08:01:16;;;;;;;;;;;;;;;13.77;100.00;101798.75;5050907;28;1886;-75
2023/10/10 08:03:44;;;;;;;;;;;;;;;13.80;100.00;101814.13;5049644;28;923;-74
2023/10/10 08:06:10;;;;;;;;;;;;;;;13.82;100.00;101801.81;5055123;28;1204;-74
2023/10/10 08:08:40;;;;;;;;;;;;;;;13.86;100.00;101796.34;5045137;28;1260;-74
2023/10/10 08:11:12;;;;;;;;;;;;;;;13.89;100.00;101790.91;5044752;28;1261;-75
2023/10/10 08:13:37;;;;;;;;;;;;;;;13.92;100.00;101790.63;5046638;28;1276;-75
2023/10/10 08:16:03;;;;;;;;;;;;;;;13.96;100.00;101797.25;5048636;28;1158;-75
2023/10/10 08:18:49;;;;;;;;;;;;;;;14.00;100.00;101798.69;5044478;28;1159;-75
2023/10/10 08:21:15;;;;;;;;;;;;;;;14.04;100.00;101805.28;5043976;28;1886;-75
2023/10/10 08:23:45;;;;;;;;;;;;;;;14.08;100.00;101791.06;5047367;28;1325;-75
2023/10/10 08:26:17;;;;;;;;;;;;;;;14.11;100.00;101798.66;5046376;28;1288;-75
2023/10/10 08:28:42;;;;;;;;;;;;;;;14.16;100.00;101793.84;5046551;28;1277;-75
2023/10/10 08:31:08;;;;;;;;;;;;;;;14.23;100.00;101795.03;5027497;28;1282;-76
2023/10/10 08:33:33;;;;;;;;;;;;;;;14.28;100.00;101803.31;5025272;28;1344;-75
2023/10/10 08:35:58;;;;;;;;;;;;;;;14.33;100.00;101803.75;5028797;28;1128;-75
2023/10/10 08:38:24;;;;;;;;;;;;;;;14.39;100.00;101810.25;5044794;28;1594;-76
2023/10/10 08:40:57;;;;;;;;;;;;;;;14.44;100.00;101804.66;5047035;28;1194;-75
2023/10/10 08:43:26;;;;;;;;;;;;;;;14.47;100.00;101812.28;5022379;28;1362;-74
2023/10/10 08:45:54;;;;;;;;;;;;;;;14.52;100.00;101820.56;5032448;28;1444;-75
2023/10/10 08:48:26;;;;;;;;;;;;;;;14.57;100.00;101813.19;5045117;28;1204;-77
2023/10/10 08:50:51;;;;;;;;;;;;;;;14.61;100.00;101811.94;5049079;28;1252;-76
2023/10/10 08:53:16;;;;;;;;;;;;;;;14.65;100.00;101810.75;5046720;28;1571;-74
2023/10/10 08:55:42;;;;;;;;;;;;;;;14.70;100.00;101808.59;5045175;28;1459;-75
2023/10/10 08:58:07;;;;;;;;;;;;;;;14.75;100.00;101808.22;5040422;28;1773;-75
2023/10/10 09:00:33;;;;;;;;;;;;;;;14.79;100.00;101801.75;5048808;28;1361;-76
2023/10/10 09:02:59;;;;;;;;;;;;;;;14.84;100.00;101805.63;5051643;28;1910;-76
2023/10/10 09:05:24;;;;;;;;;;;;;;;14.90;100.00;101793.03;5055264;28;1065;-75
2023/10/10 09:07:52;;;;;;;;;;;;;;;14.95;100.00;101788.25;5051131;28;1185;-75
2023/10/10 09:10:20;;;;;;;;;;;;;;;15.03;100.00;101785.81;5043555;28;1221;-75
2023/10/10 09:12:53;;;;;;;;;;;;;;;15.04;100.00;101790.09;5051226;28;1379;-76
2023/10/10 09:15:18;;;;;;;;;;;;;;;15.07;100.00;101787.19;5048263;28;1435;-76
2023/10/10 09:17:45;;;;;;;;;;;;;;;15.09;100.00;101788.72;5042520;28;1387;-76
2023/10/10 09:20:22;;;;;;;;;;;;;;;15.15;100.00;101790.00;5042916;28;1338;-75
2023/10/10 09:22:51;;;;;;;;;;;;;;;15.23;100.00;101794.56;5033405;28;2012;-78
2023/10/10 09:25:21;;;;;;;;;;;;;;;15.29;100.00;101804.47;5048749;28;1241;-75
2023/10/10 09:28:00;;;;;;;;;;;;;;;15.36;100.00;101795.97;5046170;28;1428;-75
2023/10/10 09:30:44;;;;;;;;;;;;;;;15.43;100.00;101798.06;5050182;28;1236;-75
2023/10/10 09:33:13;;;;;;;;;;;;;;;15.53;100.00;101801.53;5028868;28;1401;-75
2023/10/10 09:35:39;;;;;;;;;;;;;;;15.59;100.00;101791.34;5045339;28;1222;-75
2023/10/10 09:38:06;;;;;;;;;;;;;;;15.67;100.00;101798.56;5041587;28;1198;-75
2023/10/10 09:40:33;;;;;;;;;;;;;;;15.75;100.00;101800.50;5043460;28;1166;-76
2023/10/10 09:45:52;;;;;;;;;;;;;;;15.92;100.00;101803.28;5046154;28;1266;-75
2023/10/10 09:51:08;;;;;;;;;;;;;;;16.11;100.00;101796.41;5051286;28;1254;-75
2023/10/10 09:53:34;;;;;;;;;;;;;;;16.17;100.00;101801.09;5050814;28;1099;-75
2023/10/10 09:56:02;;;;;;;;;;;;;;;16.25;100.00;101793.41;5052318;28;1098;-75
2023/10/10 09:58:28;;;;;;;;;;;;;;;16.35;100.00;101788.97;5044555;28;1558;-76
2023/10/10 10:00:54;;;;;;;;;;;;;;;16.44;100.00;101782.06;5049824;28;1479;-77
2023/10/10 10:09:09;;;;;;;;;;;;;;;16.68;100.00;101784.22;5049573;28;1268;-75
2023/10/10 10:11:41;;;;;;;;;;;;;;;16.74;100.00;101788.94;5043796;28;1460;-76
2023/10/10 10:14:17;;;;;;;;;;;;;;;16.81;100.00;101792.66;5046858;28;1440;-79
2023/10/10 10:16:58;;;;;;;;;;;;;;;16.91;100.00;101785.56;5046638;28;1507;-75
2023/10/10 10:19:28;;;;;;;;;;;;;;;16.99;100.00;101793.56;5047898;28;1055;-76
2023/10/10 10:22:13;;;;;;;;;;;;;;;17.10;99.83;101799.59;5045010;28;1906;-75
2023/10/10 10:24:48;;;;;;;;;;;;;;;17.15;99.89;101792.13;5042390;28;1179;-76
2023/10/10 10:29:53;;;;;;;;;;;;;;;17.39;99.50;101795.03;5049081;28;1400;-76
2023/10/10 10:32:19;;;;;;;;;;;;;;;17.49;99.02;101782.72;5032726;28;1535;-76
2023/10/10 10:34:48;;;;;;;;;;;;;;;17.62;98.58;101784.16;5047361;28;1258;-75
2023/10/10 10:37:20;;;;;;;;;;;;;;;17.71;98.33;101783.25;5044308;28;1186;-76
2023/10/10 10:40:23;;;;;;;;;;;;;;;17.82;97.95;101780.44;5046601;28;1202;-76
2023/10/10 10:42:36;;;;;;;;;;;;;;;17.93;97.25;101772.34;5044935;28;1902;-75
2023/10/10 10:45:23;;;;;;;;;;;;;;;17.99;96.69;101770.91;5039804;28;1495;-76
2023/10/10 10:48:07;;;;;;;;;;;;;;;18.01;96.49;101780.31;5046947;28;1233;-75
2023/10/10 10:50:40;;;;;;;;;;;;;;;18.07;95.69;101767.56;5042157;28;1169;-75
2023/10/10 10:53:08;;;;;;;;;;;;;;;18.14;95.58;101765.97;5045784;28;1290;-76
2023/10/10 10:55:39;;;;;;;;;;;;;;;18.23;95.13;101759.78;5047075;28;1212;-75
2023/10/10 11:03:33;;;;;;;;;;;;;;;18.50;93.98;101743.91;5050465;28;1890;-76
2023/10/10 11:05:58;;;;;;;;;;;;;;;18.61;93.70;101744.63;5033827;28;1032;-75
2023/10/10 11:13:54;;;;;;;;;;;;;;;18.94;92.36;101749.13;5046269;28;1483;-75
2023/10/10 11:16:23;;;;;;;;;;;;;;;19.05;92.12;101748.03;5048387;28;1487;-75
2023/10/10 11:18:57;;;;;;;;;;;;;;;19.16;91.67;101744.28;5050345;28;1269;-76
2023/10/10 11:21:27;;;;;;;;;;;;;;;19.21;90.48;101739.34;5022158;28;1984;-75
2023/10/10 11:23:52;;;;;;;;;;;;;;;19.26;90.91;101752.84;5026865;28;1241;-75
2023/10/10 11:26:19;;;;;;;;;;;;;;;19.31;90.43;101747.94;5047147;28;1289;-76
2023/10/10 11:28:50;;;;;;;;;;;;;;;19.35;89.35;101741.38;5045016;28;1432;-75
2023/10/10 11:31:23;;;;;;;;;;;;;;;19.41;89.53;101748.63;5029596;28;1304;-76
2023/10/10 11:33:49;;;;;;;;;;;;;;;19.52;89.03;101740.44;5047571;28;1153;-76
2023/10/10 11:36:29;;;;;;;;;;;;;;;19.57;86.35;101746.03;5049602;28;1651;-75
2023/10/10 11:38:56;;;;;;;;;;;;;;;19.54;86.91;101745.53;5051022;28;1538;-75
2023/10/10 11:41:29;;;;;;;;;;;;;;;19.58;87.09;101750.34;5038288;28;1933;-76
2023/10/10 11:44:03;;;;;;;;;;;;;;;19.65;86.84;101755.78;5044408;28;1313;-76
2023/10/10 11:46:29;;;;;;;;;;;;;;;19.71;86.07;101744.59;5053860;28;1208;-76
2023/10/10 11:48:55;;;;;;;;;;;;;;;19.75;86.35;101743.31;5046528;28;1248;-75
2023/10/10 11:51:33;;;;;;;;;;;;;;;19.80;85.31;101734.91;5043841;28;1644;-76
2023/10/10 11:53:58;;;;;;;;;;;;;;;19.89;85.34;101726.84;5042072;28;1643;-77
2023/10/10 11:56:25;;;;;;;;;;;;;;;19.94;85.14;101733.44;5044596;28;1250;-75
2023/10/10 11:58:52;;;;;;;;;;;;;;;20.03;84.31;101727.19;5043091;28;1256;-76
2023/10/10 12:01:47;;;;;;;;;;;;;;;20.10;84.72;101722.91;5050493;28;1948;-75
2023/10/10 12:04:20;;;;;;;;;;;;;;;20.18;84.07;101714.97;5045088;28;1336;-75
2023/10/10 12:06:45;;;;;;;;;;;;;;;20.30;83.76;101720.72;5040950;28;1202;-75
2023/10/10 12:09:10;;;;;;;;;;;;;;;20.38;81.46;101720.72;5049914;28;1070;-76
2023/10/10 12:11:38;;;;;;;;;;;;;;;20.48;82.55;101718.78;5031217;28;1449;-77
2023/10/10 12:14:03;;;;;;;;;;;;;;;20.62;82.19;101712.78;5032761;28;1319;-76
2023/10/10 12:16:29;;;;;;;;;;;;;;;20.71;80.88;101720.69;5042759;28;1644;-75
2023/10/10 12:18:54;;;;;;;;;;;;;;;20.74;81.41;101710.59;5048485;28;1280;-75
2023/10/10 12:21:22;;;;;;;;;;;;;;;20.85;81.35;101709.41;5047889;28;1902;-76
2023/10/10 12:23:48;;;;;;;;;;;;;;;20.98;81.15;101707.03;5045262;28;1174;-75
2023/10/10 12:26:14;;;;;;;;;;;;;;;21.05;80.82;101701.94;5049313;28;1637;-76
2023/10/10 12:28:39;;;;;;;;;;;;;;;21.06;78.25;101709.66;5051768;28;1266;-76
2023/10/10 12:31:08;;;;;;;;;;;;;;;21.04;79.18;101701.06;5043690;28;1083;-75
2023/10/10 12:33:36;;;;;;;;;;;;;;;21.03;77.51;101702.06;5048301;28;1229;-76
2023/10/10 12:36:07;;;;;;;;;;;;;;;20.99;77.32;101698.16;5046477;28;1252;-76
2023/10/10 12:38:33;;;;;;;;;;;;;;;21.01;77.01;101696.16;5031279;28;1351;-75
2023/10/10 12:40:58;;;;;;;;;;;;;;;21.08;76.32;101691.84;5049096;28;1191;-77
2023/10/10 12:43:24;;;;;;;;;;;;;;;21.15;76.05;101692.78;5046723;28;1898;-76
2023/10/10 12:45:51;;;;;;;;;;;;;;;21.18;74.48;101689.81;5048910;28;1276;-76
2023/10/10 12:48:22;;;;;;;;;;;;;;;21.13;73.91;101694.78;5047944;28;1288;-76
2023/10/10 12:50:48;;;;;;;;;;;;;;;21.17;74.60;101685.53;5046199;28;1153;-75
2023/10/10 12:53:19;;;;;;;;;;;;;;;21.21;74.97;101686.81;5025611;28;1322;-76
2023/10/10 12:56:01;;;;;;;;;;;;;;;21.28;74.82;101680.84;5044071;28;1209;-77
2023/10/10 12:58:27;;;;;;;;;;;;;;;21.38;74.67;101687.56;5035173;28;1264;-76
2023/10/10 13:00:53;;;;;;;;;;;;;;;21.40;74.35;101676.84;5039857;28;1185;-75
2023/10/10 13:03:28;;;;;;;;;;;;;;;21.44;73.67;101680.75;5040089;28;1906;-76
2023/10/10 13:06:04;;;;;;;;;;;;;;;21.44;73.80;101676.28;5041229;28;1201;-75
2023/10/10 13:08:46;;;;;;;;;;;;;;;21.47;74.14;101675.13;5043481;28;1586;-77
2023/10/10 13:11:14;;;;;;;;;;;;;;;21.49;73.71;101675.78;5050105;28;1217;-76
2023/10/10 13:13:46;;;;;;;;;;;;;;;21.48;73.47;101676.78;5020140;28;1498;-78
2023/10/10 13:16:25;;;;;;;;;;;;;;;21.48;73.81;101669.69;5036305;28;1350;-76
2023/10/10 13:18:51;;;;;;;;;;;;;;;21.50;73.85;101673.94;5050553;28;1420;-76
2023/10/10 13:21:19;;;;;;;;;;;;;;;21.49;73.50;101670.50;5046166;28;1902;-76
2023/10/10 13:23:45;;;;;;;;;;;;;;;21.46;73.10;101668.22;5047178;28;1483;-75
2023/10/10 13:26:10;;;;;;;;;;;;;;;21.47;72.99;101672.50;5047097;28;1249;-76
2023/10/10 13:28:37;;;;;;;;;;;;;;;21.44;72.04;101671.00;5037033;28;1265;-77
2023/10/10 13:31:02;;;;;;;;;;;;;;;21.38;72.60;101681.47;5050257;28;1194;-76
2023/10/10 13:33:27;;;;;;;;;;;;;;;21.34;72.88;101686.28;5042453;28;1531;-75
2023/10/10 13:35:53;;;;;;;;;;;;;;;21.34;73.08;101685.47;5030340;28;1295;-77
2023/10/10 13:38:18;;;;;;;;;;;;;;;21.31;73.29;101685.81;5045830;28;1549;-75
2023/10/10 13:40:48;;;;;;;;;;;;;;;21.34;72.83;101685.47;5026695;28;1431;-76
2023/10/10 13:43:17;;;;;;;;;;;;;;;21.33;73.05;101678.53;5044704;28;1945;-75
2023/10/10 13:45:43;;;;;;;;;;;;;;;21.37;72.09;101679.81;5027887;28;1340;-76
2023/10/10 13:48:08;;;;;;;;;;;;;;;21.33;72.59;101678.53;5048603;28;1231;-76
2023/10/10 13:50:50;;;;;;;;;;;;;;;21.35;72.75;101671.28;5044307;28;1516;-76
2023/10/10 13:53:16;;;;;;;;;;;;;;;21.36;71.89;101667.63;5048458;28;1297;-76
2023/10/10 13:55:42;;;;;;;;;;;;;;;21.32;71.24;101667.16;5031765;28;1422;-77
2023/10/10 13:58:10;;;;;;;;;;;;;;;21.30;70.46;101674.44;5047091;28;1201;-76
2023/10/10 14:00:35;;;;;;;;;;;;;;;21.25;71.07;101657.44;5044189;28;1279;-76
2023/10/10 14:03:03;;;;;;;;;;;;;;;21.26;69.73;101659.09;5050734;28;1973;-76
2023/10/10 14:05:29;;;;;;;;;;;;;;;21.29;69.64;101661.38;5030329;28;1413;-76
2023/10/10 14:07:55;;;;;;;;;;;;;;;21.26;69.44;101657.25;5041058;28;1208;-75
2023/10/10 14:10:20;;;;;;;;;;;;;;;21.23;66.89;101662.09;5029148;28;1358;-76
2023/10/10 14:12:46;;;;;;;;;;;;;;;21.21;69.07;101655.16;5052326;28;1196;-76
2023/10/10 14:15:11;;;;;;;;;;;;;;;21.19;69.10;101657.16;5051499;28;1186;-76
2023/10/10 14:17:37;;;;;;;;;;;;;;;21.18;68.57;101642.31;5052281;28;1364;-75
2023/10/10 14:20:15;;;;;;;;;;;;;;;21.21;68.54;101638.50;5041119;28;1274;-75
2023/10/10 14:22:40;;;;;;;;;;;;;;;21.21;67.75;101628.75;5046592;28;1906;-75
2023/10/10 14:25:12;;;;;;;;;;;;;;;21.27;67.92;101629.06;5046411;28;1229;-76
2023/10/10 14:27:37;;;;;;;;;;;;;;;21.28;66.79;101630.72;5048540;28;1369;-75
2023/10/10 14:30:03;;;;;;;;;;;;;;;21.37;66.80;101632.31;5052560;28;1329;-75
2023/10/10 14:32:29;;;;;;;;;;;;;;;21.28;66.02;101625.44;5035650;28;1318;-76
2023/10/10 14:34:55;;;;;;;;;;;;;;;21.27;66.76;101623.78;5055047;28;1198;-75
2023/10/10 14:37:21;;;;;;;;;;;;;;;21.23;66.31;101619.88;5050447;28;1251;-77
2023/10/10 14:39:46;;;;;;;;;;;;;;;21.19;66.25;101614.94;5046305;28;1559;-75
2023/10/10 14:42:13;;;;;;;;;;;;;;;21.15;66.62;101621.53;5049763;28;1984;-77
2023/10/10 14:44:40;;;;;;;;;;;;;;;21.11;66.75;101616.81;5048217;28;1093;-75
2023/10/10 14:47:07;;;;;;;;;;;;;;;21.07;66.85;101605.78;5030328;28;1294;-78
2023/10/10 14:49:34;;;;;;;;;;;;;;;21.01;66.91;101606.50;5030519;28;1547;-76
2023/10/10 14:52:03;;;;;;;;;;;;;;;20.96;67.09;101608.81;5025437;28;1323;-75
2023/10/10 14:54:29;;;;;;;;;;;;;;;20.91;67.25;101600.59;5025462;28;1206;-77
2023/10/10 14:56:54;;;;;;;;;;;;;;;20.87;67.45;101609.84;5047952;28;1204;-77
2023/10/10 14:59:25;;;;;;;;;;;;;;;20.85;67.50;101606.56;5046319;28;1184;-75
2023/10/10 15:01:51;;;;;;;;;;;;;;;20.84;67.73;101599.66;5044838;28;1894;-76
2023/10/10 15:04:19;;;;;;;;;;;;;;;20.82;67.81;101606.94;5043597;28;1256;-76
2023/10/10 15:06:44;;;;;;;;;;;;;;;20.84;67.80;101599.66;5042688;28;1412;-77
2023/10/10 15:09:13;;;;;;;;;;;;;;;20.86;67.33;101598.50;5047879;28;1349;-75
2023/10/10 15:11:41;;;;;;;;;;;;;;;20.87;67.32;101588.75;5048498;28;1151;-76
2023/10/10 15:14:07;;;;;;;;;;;;;;;20.90;67.07;101593.69;5043413;28;1031;-76
2023/10/10 15:16:35;;;;;;;;;;;;;;;20.91;67.08;101588.25;5044760;28;1436;-76
2023/10/10 15:19:02;;;;;;;;;;;;;;;20.91;66.80;101590.06;5056094;28;1069;-75
2023/10/10 15:21:32;;;;;;;;;;;;;;;20.90;66.58;101586.59;5037472;28;1985;-76
2023/10/10 15:23:58;;;;;;;;;;;;;;;20.89;66.51;101592.06;5045120;28;1358;-76
2023/10/10 15:26:23;;;;;;;;;;;;;;;20.88;66.12;101587.78;5051954;28;1043;-77
2023/10/10 15:28:52;;;;;;;;;;;;;;;20.88;66.70;101585.16;5048492;28;1255;-75
2023/10/10 15:31:19;;;;;;;;;;;;;;;20.88;66.47;101579.88;5043231;28;1114;-76
2023/10/10 15:33:44;;;;;;;;;;;;;;;20.87;66.41;101583.47;5047547;28;1183;-75
2023/10/10 15:36:11;;;;;;;;;;;;;;;20.87;66.58;101578.22;5050884;28;1080;-76
2023/10/10 15:38:38;;;;;;;;;;;;;;;20.85;66.08;101574.94;5047700;28;1141;-75
2023/10/10 15:41:14;;;;;;;;;;;;;;;20.84;66.33;101578.56;5047174;28;1160;-75
2023/10/10 15:43:40;;;;;;;;;;;;;;;20.82;66.18;101570.84;5049190;28;967;-75
2023/10/10 15:46:10;;;;;;;;;;;;;;;20.81;66.28;101563.09;5044028;28;1190;-75
2023/10/10 15:48:42;;;;;;;;;;;;;;;20.79;65.38;101570.38;5048180;28;1221;-75
2023/10/10 15:51:08;;;;;;;;;;;;;;;20.77;66.31;101559.19;5042154;28;1368;-76
2023/10/10 15:53:38;;;;;;;;;;;;;;;20.75;66.08;101561.16;5048527;28;1277;-75
2023/10/10 15:56:14;;;;;;;;;;;;;;;20.72;66.28;101561.50;5048807;28;1245;-75
2023/10/10 15:58:42;;;;;;;;;;;;;;;20.67;66.22;101562.84;5041937;28;1284;-75
2023/10/10 16:01:14;;;;;;;;;;;;;;;20.63;66.60;101561.53;5030119;28;1426;-75
2023/10/10 16:03:40;;;;;;;;;;;;;;;20.60;66.47;101566.34;5046263;28;1062;-75
2023/10/10 16:06:08;;;;;;;;;;;;;;;20.58;66.15;101568.31;5030762;28;1512;-75
2023/10/10 16:08:36;;;;;;;;;;;;;;;20.56;66.49;101562.41;5029846;28;1385;-75
2023/10/10 16:11:06;;;;;;;;;;;;;;;20.51;66.06;101567.38;5044553;28;1262;-77
2023/10/10 16:13:36;;;;;;;;;;;;;;;20.47;66.01;101556.34;5043829;28;1060;-76
2023/10/10 16:16:05;;;;;;;;;;;;;;;20.43;66.63;101555.84;5046710;28;1261;-75
2023/10/10 16:18:33;;;;;;;;;;;;;;;20.41;66.40;101557.00;5038251;28;1648;-77